Terminal Aerodrome Forecast
Issued by NWS

Home | Current Version | Previous Version | Text Only | Print | Product List | Glossary On
Versions: 1 2 3 4 5 6 7 8 9 10 11 12 13 14 15
000
FTUS46 KMTR 041135
TAFOAK
TAF
KOAK 041135Z 0412/0518 20006KT P6SM FEW015
     FM041700 25014KT P6SM FEW020
     FM042100 26019G26KT P6SM SKC
     FM050500 25010KT P6SM FEW015
     FM050900 23005KT P6SM SCT015
     FM051700 25010KT P6SM FEW015=

USA.gov is the U.S. government's official web portal to all federal, state and local government web resources and services.